sensor_id;sensor_type;location;lat;lon;timestamp;temperature;humidity
44277;DHT22;29973;43.742;1.236;2023-02-15T00:01:36;5.70;99.90
44277;DHT22;29973;43.742;1.236;2023-02-15T00:04:04;5.60;99.90
44277;DHT22;29973;43.742;1.236;2023-02-15T00:06:30;5.50;99.90
44277;DHT22;29973;43.742;1.236;2023-02-15T00:08:56;5.60;99.90
44277;DHT22;29973;43.742;1.236;2023-02-15T00:11:22;5.60;99.90
44277;DHT22;29973;43.742;1.236;2023-02-15T00:14:08;5.40;99.90
44277;DHT22;29973;43.742;1.236;2023-02-15T00:16:34;5.20;99.90
44277;DHT22;29973;43.742;1.236;2023-02-15T00:19:01;5.10;99.90
44277;DHT22;29973;43.742;1.236;2023-02-15T00:21:28;5.00;99.90
44277;DHT22;29973;43.742;1.236;2023-02-15T00:23:56;5.00;99.90
44277;DHT22;29973;43.742;1.236;2023-02-15T00:26:22;4.90;99.90
44277;DHT22;29973;43.742;1.236;2023-02-15T00:28:47;5.20;99.90
44277;DHT22;29973;43.742;1.236;2023-02-15T00:31:13;5.10;99.90
44277;DHT22;29973;43.742;1.236;2023-02-15T00:33:39;4.70;99.90
44277;DHT22;29973;43.742;1.236;2023-02-15T00:36:07;4.40;99.90
44277;DHT22;29973;43.742;1.236;2023-02-15T00:38:34;4.50;99.90
44277;DHT22;29973;43.742;1.236;2023-02-15T00:41:01;4.40;99.90
44277;DHT22;29973;43.742;1.236;2023-02-15T00:43:29;4.30;99.90
44277;DHT22;29973;43.742;1.236;2023-02-15T00:45:55;4.30;99.90
44277;DHT22;29973;43.742;1.236;2023-02-15T00:48:22;4.20;99.90
44277;DHT22;29973;43.742;1.236;2023-02-15T00:50:53;4.10;99.90
44277;DHT22;29973;43.742;1.236;2023-02-15T00:53:20;4.10;99.90
44277;DHT22;29973;43.742;1.236;2023-02-15T00:55:45;4.10;99.90
44277;DHT22;29973;43.742;1.236;2023-02-15T00:58:13;4.10;99.90
44277;DHT22;29973;43.742;1.236;2023-02-15T01:00:40;4.10;99.90
44277;DHT22;29973;43.742;1.236;2023-02-15T01:03:06;3.90;99.90
44277;DHT22;29973;43.742;1.236;2023-02-15T01:05:32;3.90;99.90
44277;DHT22;29973;43.742;1.236;2023-02-15T01:07:59;3.90;99.90
44277;DHT22;29973;43.742;1.236;2023-02-15T01:10:25;3.80;99.90
44277;DHT22;29973;43.742;1.236;2023-02-15T01:12:51;3.80;99.90
44277;DHT22;29973;43.742;1.236;2023-02-15T01:15:18;3.70;99.90
44277;DHT22;29973;43.742;1.236;2023-02-15T01:17:44;3.80;99.90
44277;DHT22;29973;43.742;1.236;2023-02-15T01:20:20;3.80;99.90
44277;DHT22;29973;43.742;1.236;2023-02-15T01:22:46;3.80;99.90
44277;DHT22;29973;43.742;1.236;2023-02-15T01:25:12;3.70;99.90
44277;DHT22;29973;43.742;1.236;2023-02-15T01:27:38;3.70;99.90
44277;DHT22;29973;43.742;1.236;2023-02-15T01:30:04;3.70;99.90
44277;DHT22;29973;43.742;1.236;2023-02-15T01:32:30;3.80;99.90
44277;DHT22;29973;43.742;1.236;2023-02-15T01:34:56;3.80;99.90
44277;DHT22;29973;43.742;1.236;2023-02-15T01:37:22;3.90;99.90
44277;DHT22;29973;43.742;1.236;2023-02-15T01:39:48;3.90;99.90
44277;DHT22;29973;43.742;1.236;2023-02-15T01:42:13;3.80;99.90
44277;DHT22;29973;43.742;1.236;2023-02-15T01:44:54;3.90;99.90
44277;DHT22;29973;43.742;1.236;2023-02-15T01:52:30;3.50;99.90
44277;DHT22;29973;43.742;1.236;2023-02-15T01:54:56;3.50;99.90
44277;DHT22;29973;43.742;1.236;2023-02-15T01:57:24;3.50;99.90
44277;DHT22;29973;43.742;1.236;2023-02-15T01:59:53;3.50;99.90
44277;DHT22;29973;43.742;1.236;2023-02-15T02:02:20;3.50;99.90
44277;DHT22;29973;43.742;1.236;2023-02-15T02:04:52;3.40;99.90
44277;DHT22;29973;43.742;1.236;2023-02-15T02:07:21;3.30;99.90
44277;DHT22;29973;43.742;1.236;2023-02-15T02:09:48;3.30;99.90
44277;DHT22;29973;43.742;1.236;2023-02-15T02:12:16;3.10;99.90
44277;DHT22;29973;43.742;1.236;2023-02-15T02:14:42;3.20;99.90
44277;DHT22;29973;43.742;1.236;2023-02-15T02:23:18;2.80;99.90
44277;DHT22;29973;43.742;1.236;2023-02-15T02:29:07;2.90;99.90
44277;DHT22;29973;43.742;1.236;2023-02-15T02:34:30;2.70;99.90
44277;DHT22;29973;43.742;1.236;2023-02-15T02:37:08;2.70;99.90
44277;DHT22;29973;43.742;1.236;2023-02-15T02:39:53;2.70;99.90
44277;DHT22;29973;43.742;1.236;2023-02-15T02:42:41;2.60;99.90
44277;DHT22;29973;43.742;1.236;2023-02-15T02:47:43;2.60;99.90
44277;DHT22;29973;43.742;1.236;2023-02-15T02:50:17;2.70;99.90
44277;DHT22;29973;43.742;1.236;2023-02-15T02:52:48;2.50;99.90
44277;DHT22;29973;43.742;1.236;2023-02-15T02:55:38;2.50;99.90
44277;DHT22;29973;43.742;1.236;2023-02-15T03:00:55;2.50;99.90
44277;DHT22;29973;43.742;1.236;2023-02-15T03:03:32;2.50;99.90
44277;DHT22;29973;43.742;1.236;2023-02-15T03:06:03;2.30;99.90
44277;DHT22;29973;43.742;1.236;2023-02-15T03:08:35;2.30;99.90
44277;DHT22;29973;43.742;1.236;2023-02-15T03:11:03;2.30;99.90
44277;DHT22;29973;43.742;1.236;2023-02-15T03:13:30;2.30;99.90
44277;DHT22;29973;43.742;1.236;2023-02-15T03:15:57;2.30;99.90
44277;DHT22;29973;43.742;1.236;2023-02-15T03:18:46;2.00;99.90
44277;DHT22;29973;43.742;1.236;2023-02-15T03:21:21;1.90;99.90
44277;DHT22;29973;43.742;1.236;2023-02-15T03:23:53;1.90;99.90
44277;DHT22;29973;43.742;1.236;2023-02-15T03:26:21;1.90;99.90
44277;DHT22;29973;43.742;1.236;2023-02-15T03:28:50;2.00;99.90
44277;DHT22;29973;43.742;1.236;2023-02-15T03:31:20;1.80;99.90
44277;DHT22;29973;43.742;1.236;2023-02-15T03:34:00;1.80;99.90
44277;DHT22;29973;43.742;1.236;2023-02-15T03:39:01;1.70;99.90
44277;DHT22;29973;43.742;1.236;2023-02-15T03:41:34;1.90;99.90
44277;DHT22;29973;43.742;1.236;2023-02-15T03:44:29;2.00;99.90
44277;DHT22;29973;43.742;1.236;2023-02-15T03:47:13;2.20;99.90
44277;DHT22;29973;43.742;1.236;2023-02-15T03:49:57;2.30;99.90
44277;DHT22;29973;43.742;1.236;2023-02-15T03:52:26;2.40;99.90
44277;DHT22;29973;43.742;1.236;2023-02-15T03:54:53;2.60;99.90
44277;DHT22;29973;43.742;1.236;2023-02-15T03:57:27;2.30;99.90
44277;DHT22;29973;43.742;1.236;2023-02-15T04:00:22;2.20;99.90
44277;DHT22;29973;43.742;1.236;2023-02-15T04:03:31;1.90;99.90
44277;DHT22;29973;43.742;1.236;2023-02-15T04:06:02;1.70;99.90
44277;DHT22;29973;43.742;1.236;2023-02-15T04:08:46;1.80;99.90
44277;DHT22;29973;43.742;1.236;2023-02-15T04:11:30;1.80;99.90
44277;DHT22;29973;43.742;1.236;2023-02-15T04:14:02;1.70;99.90
44277;DHT22;29973;43.742;1.236;2023-02-15T04:16:50;1.60;99.90
44277;DHT22;29973;43.742;1.236;2023-02-15T04:19:16;1.80;99.90
44277;DHT22;29973;43.742;1.236;2023-02-15T04:22:00;1.70;99.90
44277;DHT22;29973;43.742;1.236;2023-02-15T04:24:45;1.60;99.90
44277;DHT22;29973;43.742;1.236;2023-02-15T04:27:32;1.40;99.90
44277;DHT22;29973;43.742;1.236;2023-02-15T04:30:08;1.40;99.90
44277;DHT22;29973;43.742;1.236;2023-02-15T04:32:35;1.30;99.90
44277;DHT22;29973;43.742;1.236;2023-02-15T04:35:01;1.20;99.90
44277;DHT22;29973;43.742;1.236;2023-02-15T04:37:27;1.30;99.90
44277;DHT22;29973;43.742;1.236;2023-02-15T04:39:52;1.20;99.90
44277;DHT22;29973;43.742;1.236;2023-02-15T04:42:18;1.20;99.90
44277;DHT22;29973;43.742;1.236;2023-02-15T04:44:44;1.30;99.90
44277;DHT22;29973;43.742;1.236;2023-02-15T04:47:10;1.30;99.90
44277;DHT22;29973;43.742;1.236;2023-02-15T04:49:35;1.20;99.90
44277;DHT22;29973;43.742;1.236;2023-02-15T04:52:02;1.10;99.90
44277;DHT22;29973;43.742;1.236;2023-02-15T04:54:30;1.10;99.90
44277;DHT22;29973;43.742;1.236;2023-02-15T04:56:56;1.00;99.90
44277;DHT22;29973;43.742;1.236;2023-02-15T04:59:22;1.00;99.90
44277;DHT22;29973;43.742;1.236;2023-02-15T05:01:48;0.90;99.90
44277;DHT22;29973;43.742;1.236;2023-02-15T05:04:14;0.90;99.90
44277;DHT22;29973;43.742;1.236;2023-02-15T05:06:39;0.80;99.90
44277;DHT22;29973;43.742;1.236;2023-02-15T05:09:05;0.90;99.90
44277;DHT22;29973;43.742;1.236;2023-02-15T05:11:31;1.00;99.90
44277;DHT22;29973;43.742;1.236;2023-02-15T05:13:58;1.10;99.90
44277;DHT22;29973;43.742;1.236;2023-02-15T05:16:24;1.10;99.90
44277;DHT22;29973;43.742;1.236;2023-02-15T05:18:50;1.10;99.90
44277;DHT22;29973;43.742;1.236;2023-02-15T05:21:16;0.90;99.90
44277;DHT22;29973;43.742;1.236;2023-02-15T05:23:42;0.80;99.90
44277;DHT22;29973;43.742;1.236;2023-02-15T05:26:12;0.80;99.90
44277;DHT22;29973;43.742;1.236;2023-02-15T05:28:59;1.00;99.90
44277;DHT22;29973;43.742;1.236;2023-02-15T05:31:24;0.90;99.90
44277;DHT22;29973;43.742;1.236;2023-02-15T05:33:56;0.80;99.90
44277;DHT22;29973;43.742;1.236;2023-02-15T05:36:22;0.70;99.90
44277;DHT22;29973;43.742;1.236;2023-02-15T05:38:47;0.70;99.90
44277;DHT22;29973;43.742;1.236;2023-02-15T05:41:14;0.90;99.90
44277;DHT22;29973;43.742;1.236;2023-02-15T05:43:40;0.80;99.90
44277;DHT22;29973;43.742;1.236;2023-02-15T05:46:06;0.70;99.90
44277;DHT22;29973;43.742;1.236;2023-02-15T05:48:32;0.90;99.90
44277;DHT22;29973;43.742;1.236;2023-02-15T05:51:02;0.80;99.90
44277;DHT22;29973;43.742;1.236;2023-02-15T05:53:29;0.90;99.90
44277;DHT22;29973;43.742;1.236;2023-02-15T05:55:56;1.00;99.90
44277;DHT22;29973;43.742;1.236;2023-02-15T05:58:28;1.00;99.90
44277;DHT22;29973;43.742;1.236;2023-02-15T06:00:57;1.00;99.90
44277;DHT22;29973;43.742;1.236;2023-02-15T06:03:23;1.00;99.90
44277;DHT22;29973;43.742;1.236;2023-02-15T06:05:51;1.10;99.90
44277;DHT22;29973;43.742;1.236;2023-02-15T06:08:18;1.00;99.90
44277;DHT22;29973;43.742;1.236;2023-02-15T06:10:45;0.90;99.90
44277;DHT22;29973;43.742;1.236;2023-02-15T06:13:11;1.00;99.90
44277;DHT22;29973;43.742;1.236;2023-02-15T06:15:37;1.00;99.90
44277;DHT22;29973;43.742;1.236;2023-02-15T06:18:03;0.70;99.90
44277;DHT22;29973;43.742;1.236;2023-02-15T06:20:29;0.90;99.90
44277;DHT22;29973;43.742;1.236;2023-02-15T06:22:54;1.00;99.90
44277;DHT22;29973;43.742;1.236;2023-02-15T06:25:20;0.90;99.90
44277;DHT22;29973;43.742;1.236;2023-02-15T06:27:49;1.00;99.90
44277;DHT22;29973;43.742;1.236;2023-02-15T06:30:18;1.10;99.90
44277;DHT22;29973;43.742;1.236;2023-02-15T06:32:46;1.10;99.90
44277;DHT22;29973;43.742;1.236;2023-02-15T06:35:14;1.10;99.90
44277;DHT22;29973;43.742;1.236;2023-02-15T06:37:40;1.00;99.90
44277;DHT22;29973;43.742;1.236;2023-02-15T06:40:15;1.40;99.90
44277;DHT22;29973;43.742;1.236;2023-02-15T06:42:44;1.10;99.90
44277;DHT22;29973;43.742;1.236;2023-02-15T06:45:13;0.90;99.90
44277;DHT22;29973;43.742;1.236;2023-02-15T06:47:42;0.80;99.90
44277;DHT22;29973;43.742;1.236;2023-02-15T06:50:13;0.80;99.90
44277;DHT22;29973;43.742;1.236;2023-02-15T06:52:42;0.80;99.90
44277;DHT22;29973;43.742;1.236;2023-02-15T06:55:08;0.60;99.90
44277;DHT22;29973;43.742;1.236;2023-02-15T06:57:34;0.70;99.90
44277;DHT22;29973;43.742;1.236;2023-02-15T06:59:59;0.60;99.90
44277;DHT22;29973;43.742;1.236;2023-02-15T07:02:25;0.50;99.90
44277;DHT22;29973;43.742;1.236;2023-02-15T07:04:51;0.40;99.90
44277;DHT22;29973;43.742;1.236;2023-02-15T07:07:17;0.40;99.90
44277;DHT22;29973;43.742;1.236;2023-02-15T07:09:42;0.50;99.90
44277;DHT22;29973;43.742;1.236;2023-02-15T07:12:09;0.60;99.90
44277;DHT22;29973;43.742;1.236;2023-02-15T07:14:57;0.70;99.90
44277;DHT22;29973;43.742;1.236;2023-02-15T07:17:37;0.50;99.90
44277;DHT22;29973;43.742;1.236;2023-02-15T07:20:18;0.60;99.90
44277;DHT22;29973;43.742;1.236;2023-02-15T07:22:50;0.70;99.90
44277;DHT22;29973;43.742;1.236;2023-02-15T07:25:16;0.70;99.90
44277;DHT22;29973;43.742;1.236;2023-02-15T07:27:45;0.80;99.90
44277;DHT22;29973;43.742;1.236;2023-02-15T07:30:14;0.90;99.90
44277;DHT22;29973;43.742;1.236;2023-02-15T07:32:43;1.00;99.90
44277;DHT22;29973;43.742;1.236;2023-02-15T07:35:30;1.10;99.90
44277;DHT22;29973;43.742;1.236;2023-02-15T07:37:56;1.20;99.90
44277;DHT22;29973;43.742;1.236;2023-02-15T07:40:28;1.40;99.90
44277;DHT22;29973;43.742;1.236;2023-02-15T07:42:58;1.40;99.90
44277;DHT22;29973;43.742;1.236;2023-02-15T07:45:24;1.50;99.90
44277;DHT22;29973;43.742;1.236;2023-02-15T07:47:50;1.60;99.90
44277;DHT22;29973;43.742;1.236;2023-02-15T07:50:16;1.70;99.90
44277;DHT22;29973;43.742;1.236;2023-02-15T07:52:44;1.70;99.90
44277;DHT22;29973;43.742;1.236;2023-02-15T07:55:10;1.80;99.90
44277;DHT22;29973;43.742;1.236;2023-02-15T07:57:47;1.90;99.90
44277;DHT22;29973;43.742;1.236;2023-02-15T08:00:14;1.90;99.90
44277;DHT22;29973;43.742;1.236;2023-02-15T08:02:41;1.90;99.90
44277;DHT22;29973;43.742;1.236;2023-02-15T08:05:09;1.90;99.90
44277;DHT22;29973;43.742;1.236;2023-02-15T08:07:35;2.00;99.90
44277;DHT22;29973;43.742;1.236;2023-02-15T08:10:04;2.00;99.90
44277;DHT22;29973;43.742;1.236;2023-02-15T08:12:30;2.10;99.90
44277;DHT22;29973;43.742;1.236;2023-02-15T08:14:55;2.00;99.90
44277;DHT22;29973;43.742;1.236;2023-02-15T08:17:22;2.00;99.90
44277;DHT22;29973;43.742;1.236;2023-02-15T08:19:48;2.20;99.90
44277;DHT22;29973;43.742;1.236;2023-02-15T08:22:14;2.40;99.90
44277;DHT22;29973;43.742;1.236;2023-02-15T08:24:41;2.50;99.90
44277;DHT22;29973;43.742;1.236;2023-02-15T08:27:11;2.60;99.90
44277;DHT22;29973;43.742;1.236;2023-02-15T08:29:37;2.80;99.90
44277;DHT22;29973;43.742;1.236;2023-02-15T08:32:08;3.10;99.90
44277;DHT22;29973;43.742;1.236;2023-02-15T08:34:38;3.40;99.90
44277;DHT22;29973;43.742;1.236;2023-02-15T08:37:07;3.50;99.90
44277;DHT22;29973;43.742;1.236;2023-02-15T08:39:33;3.50;99.90
44277;DHT22;29973;43.742;1.236;2023-02-15T08:42:00;3.90;99.90
44277;DHT22;29973;43.742;1.236;2023-02-15T08:44:28;4.30;99.90
44277;DHT22;29973;43.742;1.236;2023-02-15T08:46:54;4.60;99.90
44277;DHT22;29973;43.742;1.236;2023-02-15T08:49:22;5.10;99.90
44277;DHT22;29973;43.742;1.236;2023-02-15T08:51:50;5.50;99.90
44277;DHT22;29973;43.742;1.236;2023-02-15T08:54:19;5.80;99.90
44277;DHT22;29973;43.742;1.236;2023-02-15T08:56:45;5.70;99.90
44277;DHT22;29973;43.742;1.236;2023-02-15T08:59:14;5.80;99.90
44277;DHT22;29973;43.742;1.236;2023-02-15T09:01:40;6.10;99.90
44277;DHT22;29973;43.742;1.236;2023-02-15T09:04:10;6.40;99.90
44277;DHT22;29973;43.742;1.236;2023-02-15T09:06:41;6.60;99.90
44277;DHT22;29973;43.742;1.236;2023-02-15T09:09:12;6.90;99.90
44277;DHT22;29973;43.742;1.236;2023-02-15T09:11:43;7.30;99.90
44277;DHT22;29973;43.742;1.236;2023-02-15T09:14:13;7.30;99.90
44277;DHT22;29973;43.742;1.236;2023-02-15T09:16:41;7.60;99.90
44277;DHT22;29973;43.742;1.236;2023-02-15T09:19:07;8.00;99.90
44277;DHT22;29973;43.742;1.236;2023-02-15T09:21:36;8.30;99.90
44277;DHT22;29973;43.742;1.236;2023-02-15T09:24:09;8.60;99.90
44277;DHT22;29973;43.742;1.236;2023-02-15T09:26:39;8.80;99.90
44277;DHT22;29973;43.742;1.236;2023-02-15T09:29:06;9.20;99.90
44277;DHT22;29973;43.742;1.236;2023-02-15T09:31:43;9.40;99.90
44277;DHT22;29973;43.742;1.236;2023-02-15T09:34:16;9.50;99.90
44277;DHT22;29973;43.742;1.236;2023-02-15T09:36:43;9.40;99.90
44277;DHT22;29973;43.742;1.236;2023-02-15T09:39:17;9.70;99.90
44277;DHT22;29973;43.742;1.236;2023-02-15T09:42:04;9.80;99.90
44277;DHT22;29973;43.742;1.236;2023-02-15T10:04:12;16.20;96.40
44277;DHT22;29973;43.742;1.236;2023-02-15T10:12:52;17.90;90.20
44277;DHT22;29973;43.742;1.236;2023-02-15T10:18:47;16.50;92.80
44277;DHT22;29973;43.742;1.236;2023-02-15T10:21:18;16.60;92.80
44277;DHT22;29973;43.742;1.236;2023-02-15T10:23:59;16.70;92.20
44277;DHT22;29973;43.742;1.236;2023-02-15T10:26:46;16.10;92.10
44277;DHT22;29973;43.742;1.236;2023-02-15T10:34:38;17.50;90.90
44277;DHT22;29973;43.742;1.236;2023-02-15T10:45:21;17.10;90.10
44277;DHT22;29973;43.742;1.236;2023-02-15T10:50:58;17.00;87.60
44277;DHT22;29973;43.742;1.236;2023-02-15T10:53:50;17.30;85.20
44277;DHT22;29973;43.742;1.236;2023-02-15T11:04:51;18.50;82.10
44277;DHT22;29973;43.742;1.236;2023-02-15T11:07:48;17.80;83.40
44277;DHT22;29973;43.742;1.236;2023-02-15T11:10:24;17.80;85.40
44277;DHT22;29973;43.742;1.236;2023-02-15T11:12:52;18.50;83.50
44277;DHT22;29973;43.742;1.236;2023-02-15T11:21:07;19.30;79.10
44277;DHT22;29973;43.742;1.236;2023-02-15T11:23:37;19.40;79.00
44277;DHT22;29973;43.742;1.236;2023-02-15T11:26:15;18.90;77.70
44277;DHT22;29973;43.742;1.236;2023-02-15T11:28:47;19.00;80.40
44277;DHT22;29973;43.742;1.236;2023-02-15T11:31:20;19.10;77.60
44277;DHT22;29973;43.742;1.236;2023-02-15T11:33:55;18.80;79.30
44277;DHT22;29973;43.742;1.236;2023-02-15T11:36:26;17.90;81.60
44277;DHT22;29973;43.742;1.236;2023-02-15T11:38:59;18.40;80.80
44277;DHT22;29973;43.742;1.236;2023-02-15T11:41:31;18.90;76.00
44277;DHT22;29973;43.742;1.236;2023-02-15T11:44:10;19.80;73.10
44277;DHT22;29973;43.742;1.236;2023-02-15T11:46:37;21.20;70.00
44277;DHT22;29973;43.742;1.236;2023-02-15T11:49:22;20.50;70.80
44277;DHT22;29973;43.742;1.236;2023-02-15T11:51:49;20.10;71.30
44277;DHT22;29973;43.742;1.236;2023-02-15T11:54:23;19.70;70.40
44277;DHT22;29973;43.742;1.236;2023-02-15T11:56:50;21.00;69.40
44277;DHT22;29973;43.742;1.236;2023-02-15T11:59:34;20.70;70.20
44277;DHT22;29973;43.742;1.236;2023-02-15T12:02:02;21.10;69.20
44277;DHT22;29973;43.742;1.236;2023-02-15T12:04:39;19.40;73.00
44277;DHT22;29973;43.742;1.236;2023-02-15T12:07:46;20.50;70.00
44277;DHT22;29973;43.742;1.236;2023-02-15T12:10:16;20.80;66.60
44277;DHT22;29973;43.742;1.236;2023-02-15T12:12:43;21.10;65.20
44277;DHT22;29973;43.742;1.236;2023-02-15T12:15:11;20.90;66.40
44277;DHT22;29973;43.742;1.236;2023-02-15T12:17:50;20.30;67.80
44277;DHT22;29973;43.742;1.236;2023-02-15T12:22:59;20.30;67.30
44277;DHT22;29973;43.742;1.236;2023-02-15T12:28:40;20.40;63.70
44277;DHT22;29973;43.742;1.236;2023-02-15T12:31:20;19.90;66.00
44277;DHT22;29973;43.742;1.236;2023-02-15T12:33:47;20.70;66.40
44277;DHT22;29973;43.742;1.236;2023-02-15T12:36:21;21.70;59.40
44277;DHT22;29973;43.742;1.236;2023-02-15T12:39:25;21.60;62.10
44277;DHT22;29973;43.742;1.236;2023-02-15T12:44:28;21.80;63.80
44277;DHT22;29973;43.742;1.236;2023-02-15T12:47:06;20.40;62.50
44277;DHT22;29973;43.742;1.236;2023-02-15T12:49:43;20.40;63.10
44277;DHT22;29973;43.742;1.236;2023-02-15T12:54:46;21.00;61.90
44277;DHT22;29973;43.742;1.236;2023-02-15T12:57:33;20.90;61.30
44277;DHT22;29973;43.742;1.236;2023-02-15T13:00:25;21.40;59.10
44277;DHT22;29973;43.742;1.236;2023-02-15T13:02:54;21.60;59.80
44277;DHT22;29973;43.742;1.236;2023-02-15T13:05:34;21.50;59.60
44277;DHT22;29973;43.742;1.236;2023-02-15T13:08:15;22.70;58.50
44277;DHT22;29973;43.742;1.236;2023-02-15T13:11:02;22.60;56.80
44277;DHT22;29973;43.742;1.236;2023-02-15T13:13:31;21.60;60.10
44277;DHT22;29973;43.742;1.236;2023-02-15T13:16:06;22.00;57.80
44277;DHT22;29973;43.742;1.236;2023-02-15T13:18:42;23.30;55.90
44277;DHT22;29973;43.742;1.236;2023-02-15T13:21:24;22.00;56.40
44277;DHT22;29973;43.742;1.236;2023-02-15T13:24:05;21.60;57.50
44277;DHT22;29973;43.742;1.236;2023-02-15T13:26:32;22.10;55.90
44277;DHT22;29973;43.742;1.236;2023-02-15T13:29:10;23.40;54.10
44277;DHT22;29973;43.742;1.236;2023-02-15T13:31:38;24.20;52.60
44277;DHT22;29973;43.742;1.236;2023-02-15T13:34:21;24.50;49.40
44277;DHT22;29973;43.742;1.236;2023-02-15T13:37:16;22.60;54.60
44277;DHT22;29973;43.742;1.236;2023-02-15T13:39:55;22.30;54.80
44277;DHT22;29973;43.742;1.236;2023-02-15T13:50:45;22.80;52.10
44277;DHT22;29973;43.742;1.236;2023-02-15T13:55:57;22.90;52.00
44277;DHT22;29973;43.742;1.236;2023-02-15T14:01:46;23.30;52.20
44277;DHT22;29973;43.742;1.236;2023-02-15T14:07:37;22.90;53.80
44277;DHT22;29973;43.742;1.236;2023-02-15T14:12:37;22.90;51.90
44277;DHT22;29973;43.742;1.236;2023-02-15T14:23:24;21.00;57.20
44277;DHT22;29973;43.742;1.236;2023-02-15T14:31:32;22.10;53.70
44277;DHT22;29973;43.742;1.236;2023-02-15T14:33:59;21.10;54.50
44277;DHT22;29973;43.742;1.236;2023-02-15T14:36:27;22.10;51.20
44277;DHT22;29973;43.742;1.236;2023-02-15T14:42:21;22.30;52.70
44277;DHT22;29973;43.742;1.236;2023-02-15T14:45:01;21.40;56.40
44277;DHT22;29973;43.742;1.236;2023-02-15T14:47:37;21.70;55.00
44277;DHT22;29973;43.742;1.236;2023-02-15T14:50:35;21.60;55.50
44277;DHT22;29973;43.742;1.236;2023-02-15T14:53:32;22.10;52.80
44277;DHT22;29973;43.742;1.236;2023-02-15T14:58:37;20.70;53.90
44277;DHT22;29973;43.742;1.236;2023-02-15T15:01:08;21.00;55.60
44277;DHT22;29973;43.742;1.236;2023-02-15T15:03:35;20.70;55.60
44277;DHT22;29973;43.742;1.236;2023-02-15T15:06:03;21.30;55.30
44277;DHT22;29973;43.742;1.236;2023-02-15T15:08:40;20.80;56.20
44277;DHT22;29973;43.742;1.236;2023-02-15T15:14:00;22.50;52.70
44277;DHT22;29973;43.742;1.236;2023-02-15T15:19:02;22.20;53.20
44277;DHT22;29973;43.742;1.236;2023-02-15T15:21:54;22.50;52.40
44277;DHT22;29973;43.742;1.236;2023-02-15T15:27:45;21.60;52.70
44277;DHT22;29973;43.742;1.236;2023-02-15T15:41:16;20.20;55.80
44277;DHT22;29973;43.742;1.236;2023-02-15T15:46:57;19.20;56.60
44277;DHT22;29973;43.742;1.236;2023-02-15T15:49:30;19.00;57.00
44277;DHT22;29973;43.742;1.236;2023-02-15T15:52:00;18.10;59.30
44277;DHT22;29973;43.742;1.236;2023-02-15T15:54:27;18.90;57.50
44277;DHT22;29973;43.742;1.236;2023-02-15T15:57:04;19.30;56.50
44277;DHT22;29973;43.742;1.236;2023-02-15T15:59:32;18.50;58.40
44277;DHT22;29973;43.742;1.236;2023-02-15T16:02:11;18.20;59.30
44277;DHT22;29973;43.742;1.236;2023-02-15T16:04:38;18.20;59.40
44277;DHT22;29973;43.742;1.236;2023-02-15T16:12:20;19.70;56.00
44277;DHT22;29973;43.742;1.236;2023-02-15T16:14:46;19.40;55.90
44277;DHT22;29973;43.742;1.236;2023-02-15T16:17:19;18.90;56.90
44277;DHT22;29973;43.742;1.236;2023-02-15T16:19:45;17.80;58.60
44277;DHT22;29973;43.742;1.236;2023-02-15T16:22:24;17.60;60.20
44277;DHT22;29973;43.742;1.236;2023-02-15T16:25:15;16.40;61.60
44277;DHT22;29973;43.742;1.236;2023-02-15T16:27:45;15.40;65.80
44277;DHT22;29973;43.742;1.236;2023-02-15T16:32:43;14.30;71.70
44277;DHT22;29973;43.742;1.236;2023-02-15T16:35:14;14.10;71.70
44277;DHT22;29973;43.742;1.236;2023-02-15T16:37:40;14.00;73.00
44277;DHT22;29973;43.742;1.236;2023-02-15T16:40:12;13.80;73.70
44277;DHT22;29973;43.742;1.236;2023-02-15T16:43:15;13.60;74.80
44277;DHT22;29973;43.742;1.236;2023-02-15T16:45:41;13.40;75.70
44277;DHT22;29973;43.742;1.236;2023-02-15T16:48:13;13.30;76.80
44277;DHT22;29973;43.742;1.236;2023-02-15T16:50:47;13.30;76.80
44277;DHT22;29973;43.742;1.236;2023-02-15T16:53:21;13.20;78.70
44277;DHT22;29973;43.742;1.236;2023-02-15T16:55:51;13.10;79.10
44277;DHT22;29973;43.742;1.236;2023-02-15T16:58:23;12.80;80.50
44277;DHT22;29973;43.742;1.236;2023-02-15T17:00:51;12.50;82.90
44277;DHT22;29973;43.742;1.236;2023-02-15T17:03:23;12.30;83.00
44277;DHT22;29973;43.742;1.236;2023-02-15T17:05:57;12.10;84.70
44277;DHT22;29973;43.742;1.236;2023-02-15T17:08:31;11.80;86.90
44277;DHT22;29973;43.742;1.236;2023-02-15T17:11:13;11.40;88.50
44277;DHT22;29973;43.742;1.236;2023-02-15T17:16:32;10.60;92.20
44277;DHT22;29973;43.742;1.236;2023-02-15T17:19:00;10.50;93.30
44277;DHT22;29973;43.742;1.236;2023-02-15T17:21:35;10.20;94.10
44277;DHT22;29973;43.742;1.236;2023-02-15T17:24:03;10.00;94.70
44277;DHT22;29973;43.742;1.236;2023-02-15T17:26:36;9.70;95.70
44277;DHT22;29973;43.742;1.236;2023-02-15T17:29:20;9.40;96.20
44277;DHT22;29973;43.742;1.236;2023-02-15T17:31:50;9.40;96.60
44277;DHT22;29973;43.742;1.236;2023-02-15T17:39:50;8.80;98.90
44277;DHT22;29973;43.742;1.236;2023-02-15T17:42:16;8.70;99.90
44277;DHT22;29973;43.742;1.236;2023-02-15T17:44:42;8.60;99.90
44277;DHT22;29973;43.742;1.236;2023-02-15T17:47:17;8.60;99.90
44277;DHT22;29973;43.742;1.236;2023-02-15T17:49:43;8.60;99.90
44277;DHT22;29973;43.742;1.236;2023-02-15T17:52:13;8.70;99.90
44277;DHT22;29973;43.742;1.236;2023-02-15T17:54:40;9.10;99.90
44277;DHT22;29973;43.742;1.236;2023-02-15T17:57:24;9.00;99.90
44277;DHT22;29973;43.742;1.236;2023-02-15T17:59:51;8.60;99.90
44277;DHT22;29973;43.742;1.236;2023-02-15T18:02:36;8.40;99.90
44277;DHT22;29973;43.742;1.236;2023-02-15T18:05:20;8.00;99.90
44277;DHT22;29973;43.742;1.236;2023-02-15T18:08:10;8.00;99.90
44277;DHT22;29973;43.742;1.236;2023-02-15T18:10:54;7.80;99.90
44277;DHT22;29973;43.742;1.236;2023-02-15T18:13:38;7.60;99.90
44277;DHT22;29973;43.742;1.236;2023-02-15T18:16:04;7.30;99.90
44277;DHT22;29973;43.742;1.236;2023-02-15T18:18:30;7.50;99.90
44277;DHT22;29973;43.742;1.236;2023-02-15T18:20:55;7.70;99.90
44277;DHT22;29973;43.742;1.236;2023-02-15T18:23:21;7.50;99.90
44277;DHT22;29973;43.742;1.236;2023-02-15T18:25:47;7.40;99.90
44277;DHT22;29973;43.742;1.236;2023-02-15T18:28:12;7.20;99.90
44277;DHT22;29973;43.742;1.236;2023-02-15T18:30:39;7.20;99.90
44277;DHT22;29973;43.742;1.236;2023-02-15T18:35:48;6.80;99.90
44277;DHT22;29973;43.742;1.236;2023-02-15T18:38:16;6.90;99.90
44277;DHT22;29973;43.742;1.236;2023-02-15T18:40:42;7.00;99.90
44277;DHT22;29973;43.742;1.236;2023-02-15T18:43:12;6.90;99.90
44277;DHT22;29973;43.742;1.236;2023-02-15T18:45:38;6.70;99.90
44277;DHT22;29973;43.742;1.236;2023-02-15T18:48:06;6.80;99.90
44277;DHT22;29973;43.742;1.236;2023-02-15T18:50:36;6.80;99.90
44277;DHT22;29973;43.742;1.236;2023-02-15T18:53:04;6.80;99.90
44277;DHT22;29973;43.742;1.236;2023-02-15T18:58:26;6.80;99.90
44277;DHT22;29973;43.742;1.236;2023-02-15T19:00:52;6.70;99.90
44277;DHT22;29973;43.742;1.236;2023-02-15T19:03:19;6.50;99.90
44277;DHT22;29973;43.742;1.236;2023-02-15T19:05:45;6.40;99.90
44277;DHT22;29973;43.742;1.236;2023-02-15T19:08:20;6.40;99.90